createdAt,value
2024-03-05T00:00:36.968Z,8.30
2024-03-05T00:03:05.866Z,8.30
2024-03-05T00:05:32.673Z,8.30
2024-03-05T00:07:59.535Z,8.30
2024-03-05T00:10:26.368Z,8.30
2024-03-05T00:12:53.971Z,8.30
2024-03-05T00:15:20.777Z,8.40
2024-03-05T00:17:47.619Z,8.30
2024-03-05T00:20:19.913Z,8.30
2024-03-05T00:22:48.218Z,8.40
2024-03-05T00:25:15.598Z,8.40
2024-03-05T00:27:42.513Z,8.30
2024-03-05T00:30:11.312Z,8.30
2024-03-05T00:32:41.122Z,8.30
2024-03-05T00:35:09.233Z,8.30
2024-03-05T00:37:37.165Z,8.20
2024-03-05T00:40:09.956Z,8.30
2024-03-05T00:42:40.211Z,8.20
2024-03-05T00:45:13.306Z,8.30
2024-03-05T00:47:40.155Z,8.30
2024-03-05T00:50:08.322Z,8.30
2024-03-05T00:52:38.149Z,8.30
2024-03-05T00:55:08.575Z,8.30
2024-03-05T00:57:36.262Z,8.30
2024-03-05T01:00:03.737Z,8.20
2024-03-05T01:02:30.964Z,8.20
2024-03-05T01:04:57.834Z,8.20
2024-03-05T01:07:24.699Z,8.20
2024-03-05T01:09:51.466Z,8.20
2024-03-05T01:12:18.248Z,8.20
2024-03-05T01:14:45.926Z,8.30
2024-03-05T01:17:13.825Z,8.30
2024-03-05T01:19:40.802Z,8.20
2024-03-05T01:22:07.619Z,8.20
2024-03-05T01:24:34.412Z,8.20
2024-03-05T01:27:01.168Z,8.20
2024-03-05T01:29:30.540Z,8.20
2024-03-05T01:31:59.648Z,8.20
2024-03-05T01:34:27.161Z,8.20
2024-03-05T01:37:00.262Z,8.20
2024-03-05T01:39:29.247Z,8.20
2024-03-05T01:41:56.786Z,8.20
2024-03-05T01:44:26.556Z,8.10
2024-03-05T01:46:57.116Z,8.10
2024-03-05T01:49:26.417Z,8.20
2024-03-05T01:51:56.488Z,8.10
2024-03-05T01:54:25.978Z,8.10
2024-03-05T01:56:58.382Z,8.00
2024-03-05T01:59:26.210Z,7.90
2024-03-05T02:01:54.354Z,7.90
2024-03-05T02:04:22.730Z,7.80
2024-03-05T02:06:52.896Z,7.60
2024-03-05T02:09:22.701Z,7.60
2024-03-05T02:11:56.108Z,7.60
2024-03-05T02:14:29.411Z,7.60
2024-03-05T02:16:59.050Z,7.60
2024-03-05T02:19:26.503Z,7.70
2024-03-05T02:22:04.296Z,7.70
2024-03-05T02:24:31.582Z,7.70
2024-03-05T02:27:02.174Z,7.80
2024-03-05T02:29:31.015Z,7.90
2024-03-05T02:31:58.341Z,7.90
2024-03-05T02:34:25.217Z,7.90
2024-03-05T02:36:52.219Z,7.80
2024-03-05T02:39:19.175Z,7.80
2024-03-05T02:41:45.976Z,7.80
2024-03-05T02:44:13.185Z,7.80
2024-03-05T02:46:39.950Z,7.80
2024-03-05T02:49:06.691Z,7.80
2024-03-05T02:51:33.463Z,7.80
2024-03-05T02:54:00.449Z,7.80
2024-03-05T02:56:27.305Z,7.80
2024-03-05T02:58:54.069Z,7.80
2024-03-05T03:01:20.930Z,7.80
2024-03-05T03:03:48.028Z,7.80
2024-03-05T03:06:18.871Z,7.80
2024-03-05T03:08:45.702Z,7.80
2024-03-05T03:11:16.764Z,7.90
2024-03-05T03:13:45.450Z,7.90
2024-03-05T03:16:12.434Z,8.00
2024-03-05T03:18:39.390Z,7.90
2024-03-05T03:21:06.248Z,7.90
2024-03-05T03:23:33.025Z,7.90
2024-03-05T03:25:59.876Z,7.90
2024-03-05T03:28:26.743Z,7.90
2024-03-05T03:30:56.114Z,7.90
2024-03-05T03:33:23.292Z,8.00
2024-03-05T03:35:50.183Z,8.00
2024-03-05T03:38:17.056Z,8.00
2024-03-05T03:40:43.997Z,8.00
2024-03-05T03:43:15.911Z,8.00
2024-03-05T03:45:43.747Z,8.10
2024-03-05T03:48:10.504Z,8.10
2024-03-05T03:50:38.852Z,8.00
2024-03-05T03:53:06.351Z,8.00
2024-03-05T03:55:33.527Z,8.00
2024-03-05T03:58:00.382Z,8.00
2024-03-05T04:00:27.345Z,8.00
2024-03-05T04:02:54.166Z,8.00
2024-03-05T04:05:21.137Z,8.00
2024-03-05T04:07:48.003Z,8.00
2024-03-05T04:10:16.628Z,8.00
2024-03-05T04:12:43.986Z,8.00
2024-03-05T04:15:13.687Z,8.00
2024-03-05T04:17:41.095Z,8.00
2024-03-05T04:20:10.590Z,8.00
2024-03-05T04:22:41.052Z,8.10
2024-03-05T04:25:08.655Z,8.00
2024-03-05T04:27:37.894Z,8.00
2024-03-05T04:30:11.679Z,8.00
2024-03-05T04:32:42.113Z,8.00
2024-03-05T04:35:12.719Z,8.00
2024-03-05T04:37:41.165Z,8.10
2024-03-05T04:40:11.567Z,8.10
2024-03-05T04:42:38.649Z,8.00
2024-03-05T04:45:05.821Z,7.90
2024-03-05T04:47:33.074Z,8.00
2024-03-05T04:50:00.736Z,8.10
2024-03-05T04:52:30.866Z,8.00
2024-03-05T04:54:59.276Z,8.00
2024-03-05T04:57:26.164Z,8.00
2024-03-05T04:59:53.729Z,8.00
2024-03-05T05:02:20.762Z,8.00
2024-03-05T05:04:49.218Z,8.00
2024-03-05T05:07:17.834Z,8.00
2024-03-05T05:09:45.528Z,8.00
2024-03-05T05:12:13.216Z,8.00
2024-03-05T05:14:40.038Z,8.00
2024-03-05T05:17:07.195Z,8.10
2024-03-05T05:19:34.070Z,8.10
2024-03-05T05:22:00.838Z,8.10
2024-03-05T05:24:27.566Z,8.10
2024-03-05T05:26:54.474Z,8.10
2024-03-05T05:29:31.326Z,8.10
2024-03-05T05:32:08.683Z,8.10
2024-03-05T05:34:36.480Z,8.10
2024-03-05T05:37:03.338Z,8.10
2024-03-05T05:39:30.281Z,8.10
2024-03-05T05:41:57.388Z,8.10
2024-03-05T05:44:24.382Z,8.10
2024-03-05T05:46:52.052Z,8.10
2024-03-05T05:49:22.059Z,8.10
2024-03-05T05:51:49.712Z,8.10
2024-03-05T05:54:19.822Z,8.10
2024-03-05T05:56:49.688Z,8.10
2024-03-05T05:59:17.101Z,8.10
2024-03-05T06:01:45.003Z,8.10
2024-03-05T06:04:12.755Z,8.10
2024-03-05T06:06:39.945Z,8.10
2024-03-05T06:09:09.819Z,8.10
2024-03-05T06:11:40.221Z,8.10
2024-03-05T06:14:10.049Z,8.10
2024-03-05T06:16:36.846Z,8.10
2024-03-05T06:19:03.767Z,8.10
2024-03-05T06:21:30.636Z,8.00
2024-03-05T06:23:57.494Z,8.00
2024-03-05T06:26:24.392Z,8.10
2024-03-05T06:28:51.289Z,8.10
2024-03-05T06:31:18.221Z,8.10
2024-03-05T06:33:45.446Z,8.10
2024-03-05T06:36:13.765Z,8.10
2024-03-05T06:38:40.974Z,8.10
2024-03-05T06:41:10.811Z,8.10
2024-03-05T06:43:38.705Z,8.10
2024-03-05T06:46:06.194Z,8.10
2024-03-05T06:48:34.549Z,8.10
2024-03-05T06:51:04.721Z,8.20
2024-03-05T06:53:50.217Z,8.20
2024-03-05T06:56:35.867Z,8.20
2024-03-05T06:59:04.902Z,8.20
2024-03-05T07:01:33.985Z,8.10
2024-03-05T07:04:02.673Z,8.10
2024-03-05T07:06:29.580Z,8.20
2024-03-05T07:08:57.643Z,8.10
2024-03-05T07:11:26.782Z,8.20
2024-03-05T07:13:55.030Z,8.10
2024-03-05T07:16:22.272Z,8.10
2024-03-05T07:18:57.141Z,8.10
2024-03-05T07:21:25.857Z,8.20
2024-03-05T07:23:55.086Z,8.20
2024-03-05T07:26:22.975Z,8.20
2024-03-05T07:28:49.961Z,8.20
2024-03-05T07:31:18.327Z,8.10
2024-03-05T07:33:48.824Z,8.00
2024-03-05T07:36:18.758Z,8.00
2024-03-05T07:38:45.853Z,8.00
2024-03-05T07:41:18.204Z,8.00
2024-03-05T07:43:53.248Z,8.10
2024-03-05T07:46:20.373Z,8.00
2024-03-05T07:48:47.400Z,8.00
2024-03-05T07:51:19.564Z,8.00
2024-03-05T07:53:51.435Z,8.00
2024-03-05T07:56:18.303Z,7.90
2024-03-05T07:58:46.012Z,8.00
2024-03-05T08:01:13.052Z,7.90
2024-03-05T08:03:42.283Z,8.00
2024-03-05T08:06:09.283Z,8.00
2024-03-05T08:08:36.179Z,7.90
2024-03-05T08:11:03.223Z,7.90
2024-03-05T08:13:30.160Z,8.00
2024-03-05T08:15:56.998Z,8.10
2024-03-05T08:18:26.729Z,8.10
2024-03-05T08:20:53.539Z,8.10
2024-03-05T08:23:20.295Z,8.00
2024-03-05T08:25:49.713Z,8.00
2024-03-05T08:28:16.577Z,8.00
2024-03-05T08:30:43.926Z,8.00
2024-03-05T08:33:11.491Z,8.00
2024-03-05T08:35:38.476Z,8.00
2024-03-05T08:38:05.528Z,8.10
2024-03-05T08:40:36.749Z,8.00
2024-03-05T08:43:05.131Z,8.00
2024-03-05T08:45:33.204Z,8.10
2024-03-05T08:48:00.344Z,8.00
2024-03-05T08:50:30.463Z,8.00
2024-03-05T08:52:59.510Z,8.00
2024-03-05T08:55:27.421Z,8.00
2024-03-05T08:57:56.658Z,8.00
2024-03-05T09:00:33.491Z,7.90
2024-03-05T09:03:09.487Z,8.00
2024-03-05T09:05:37.178Z,8.10
2024-03-05T09:08:06.356Z,8.10
2024-03-05T09:10:33.929Z,8.00
2024-03-05T09:13:01.220Z,8.00
2024-03-05T09:15:28.197Z,8.10
2024-03-05T09:17:55.243Z,8.10
2024-03-05T09:20:22.146Z,8.10
2024-03-05T09:22:49.054Z,8.20
2024-03-05T09:25:17.258Z,8.20
2024-03-05T09:27:46.612Z,8.20
2024-03-05T09:30:19.708Z,8.30
2024-03-05T09:32:47.993Z,8.40
2024-03-05T09:35:16.541Z,8.40
2024-03-05T09:37:46.771Z,8.50
2024-03-05T09:40:20.923Z,8.50
2024-03-05T09:42:48.461Z,8.50
2024-03-05T09:45:17.290Z,8.60
2024-03-05T09:47:45.145Z,8.60
2024-03-05T09:50:17.283Z,8.70
2024-03-05T09:52:48.181Z,8.70
2024-03-05T09:55:16.456Z,8.60
2024-03-05T09:57:49.827Z,8.60
2024-03-05T10:00:18.912Z,8.60
2024-03-05T10:02:51.948Z,8.60
2024-03-05T10:05:19.796Z,8.60
2024-03-05T10:07:48.123Z,8.50
2024-03-05T10:10:19.272Z,8.40
2024-03-05T10:12:46.097Z,8.40
2024-03-05T10:15:23.781Z,8.40
2024-03-05T10:17:54.132Z,8.50
2024-03-05T10:20:33.302Z,8.50
2024-03-05T10:23:03.097Z,8.50
2024-03-05T10:25:32.680Z,8.50
2024-03-05T10:28:00.999Z,8.50
2024-03-05T10:30:40.442Z,8.60
2024-03-05T10:33:11.670Z,8.60
2024-03-05T10:35:40.324Z,8.60
2024-03-05T10:38:13.430Z,8.60
2024-03-05T10:40:45.395Z,8.60
2024-03-05T10:43:17.165Z,8.60
2024-03-05T10:45:45.940Z,8.60
2024-03-05T10:48:16.269Z,8.60
2024-03-05T10:50:47.893Z,8.60
2024-03-05T10:53:17.837Z,8.60
2024-03-05T10:55:46.020Z,8.70
2024-03-05T10:58:14.961Z,8.70
2024-03-05T11:00:44.872Z,8.70
2024-03-05T11:03:14.363Z,8.60
2024-03-05T11:05:46.964Z,8.60
2024-03-05T11:08:17.905Z,8.60
2024-03-05T11:10:50.966Z,8.60
2024-03-05T11:13:19.483Z,8.60
2024-03-05T11:15:46.787Z,8.50
2024-03-05T11:18:34.240Z,8.60
2024-03-05T11:21:15.808Z,8.50
2024-03-05T11:23:51.694Z,8.40
2024-03-05T11:26:23.975Z,8.60
2024-03-05T11:28:54.436Z,8.50
2024-03-05T11:31:22.485Z,8.60
2024-03-05T11:34:10.545Z,8.50
2024-03-05T11:36:37.974Z,8.60
2024-03-05T11:39:10.180Z,8.60
2024-03-05T11:41:43.215Z,8.70
2024-03-05T11:44:33.549Z,8.60
2024-03-05T11:47:00.366Z,8.70
2024-03-05T11:49:27.364Z,8.70
2024-03-05T11:51:54.261Z,8.80
2024-03-05T11:54:24.890Z,8.80
2024-03-05T11:56:59.993Z,8.90
2024-03-05T11:59:40.445Z,9.00
2024-03-05T12:02:11.797Z,9.10
2024-03-05T12:04:42.962Z,9.20
2024-03-05T12:07:14.136Z,9.40
2024-03-05T12:09:41.751Z,9.50
2024-03-05T12:12:13.237Z,9.50
2024-03-05T12:14:52.420Z,9.50
2024-03-05T12:17:19.995Z,9.60
2024-03-05T12:19:56.343Z,9.90
2024-03-05T12:22:24.225Z,10.10
2024-03-05T12:24:51.193Z,10.20
2024-03-05T12:27:18.575Z,10.20
2024-03-05T12:29:45.505Z,10.20
2024-03-05T12:32:13.833Z,10.30
2024-03-05T12:34:45.161Z,10.30
2024-03-05T12:37:12.889Z,10.30
2024-03-05T12:39:43.883Z,10.30
2024-03-05T12:42:12.576Z,10.20
2024-03-05T12:44:39.579Z,10.20
2024-03-05T12:47:15.175Z,10.20
2024-03-05T12:49:49.779Z,10.20
2024-03-05T12:52:20.949Z,10.20
2024-03-05T12:54:57.971Z,10.30
2024-03-05T12:57:25.559Z,10.40
2024-03-05T12:59:52.654Z,10.60
2024-03-05T13:02:19.601Z,10.80
2024-03-05T13:04:47.040Z,10.80
2024-03-05T13:07:14.400Z,10.80
2024-03-05T13:09:41.242Z,10.80
2024-03-05T13:12:11.673Z,10.70
2024-03-05T13:14:38.500Z,10.60
2024-03-05T13:17:08.151Z,10.40
2024-03-05T13:19:35.120Z,10.20
2024-03-05T13:22:05.630Z,10.20
2024-03-05T13:24:32.572Z,10.10
2024-03-05T13:27:00.759Z,10.00
2024-03-05T13:29:27.660Z,9.80
2024-03-05T13:31:54.539Z,9.70
2024-03-05T13:34:23.732Z,9.70
2024-03-05T13:36:50.808Z,9.50
2024-03-05T13:39:19.546Z,9.40
2024-03-05T13:41:48.767Z,9.30
2024-03-05T13:44:16.148Z,9.20
2024-03-05T13:46:43.321Z,9.00
2024-03-05T13:49:12.540Z,9.00
2024-03-05T13:51:39.711Z,9.00
2024-03-05T13:54:07.458Z,8.90
2024-03-05T13:56:34.447Z,9.00
2024-03-05T13:59:06.811Z,8.90
2024-03-05T14:01:34.054Z,9.00
2024-03-05T14:04:01.009Z,9.10
2024-03-05T14:06:28.693Z,9.30
2024-03-05T14:08:57.625Z,9.50
2024-03-05T14:11:27.217Z,9.60
2024-03-05T14:13:54.111Z,9.70
2024-03-05T14:16:22.949Z,9.90
2024-03-05T14:18:49.923Z,10.10
2024-03-05T14:21:19.389Z,10.00
2024-03-05T14:23:46.135Z,10.00
2024-03-05T14:26:13.379Z,10.00
2024-03-05T14:28:40.227Z,10.00
2024-03-05T14:31:08.005Z,10.00
2024-03-05T14:33:34.866Z,10.20
2024-03-05T14:36:01.933Z,10.30
2024-03-05T14:38:32.358Z,10.40
2024-03-05T14:40:59.332Z,10.20
2024-03-05T14:43:28.547Z,10.10
2024-03-05T14:45:55.837Z,10.20
2024-03-05T14:48:24.794Z,10.30
2024-03-05T14:50:54.015Z,10.40
2024-03-05T14:53:21.509Z,10.50
2024-03-05T14:55:48.583Z,10.60
2024-03-05T14:58:15.737Z,10.60
2024-03-05T15:00:43.514Z,10.50
2024-03-05T15:03:10.505Z,10.60
2024-03-05T15:05:37.275Z,10.60
2024-03-05T15:08:04.399Z,10.50
2024-03-05T15:10:32.261Z,10.50
2024-03-05T15:12:59.216Z,10.50
2024-03-05T15:15:26.224Z,10.50
2024-03-05T15:17:53.148Z,10.40
2024-03-05T15:20:20.460Z,10.30
2024-03-05T15:22:52.103Z,10.10
2024-03-05T15:25:23.617Z,10.10
2024-03-05T15:28:01.063Z,10.10
2024-03-05T15:30:33.372Z,10.10
2024-03-05T15:33:01.545Z,10.20
2024-03-05T15:35:29.803Z,10.10
2024-03-05T15:37:58.971Z,10.00
2024-03-05T15:40:27.097Z,10.00
2024-03-05T15:42:56.505Z,10.10
2024-03-05T15:45:30.603Z,10.20
2024-03-05T15:47:59.594Z,10.30
2024-03-05T15:50:30.974Z,10.50
2024-03-05T15:53:04.113Z,10.60
2024-03-05T15:55:32.964Z,10.80
2024-03-05T15:57:59.957Z,10.80
2024-03-05T16:00:36.139Z,10.90
2024-03-05T16:03:09.365Z,11.00
2024-03-05T16:05:46.318Z,11.00
2024-03-05T16:08:21.886Z,10.90
2024-03-05T16:10:49.871Z,10.90
2024-03-05T16:13:17.701Z,10.80
2024-03-05T16:15:46.757Z,10.70
2024-03-05T16:18:17.448Z,10.60
2024-03-05T16:20:44.604Z,10.50
2024-03-05T16:23:12.168Z,10.50
2024-03-05T16:25:43.121Z,10.40
2024-03-05T16:28:11.393Z,10.30
2024-03-05T16:30:39.228Z,10.30
2024-03-05T16:33:07.166Z,10.40
2024-03-05T16:35:36.529Z,10.40
2024-03-05T16:38:05.088Z,10.30
2024-03-05T16:40:36.600Z,10.30
2024-03-05T16:43:04.167Z,10.20
2024-03-05T16:45:31.132Z,10.20
2024-03-05T16:48:02.350Z,10.10
2024-03-05T16:50:30.863Z,10.00
2024-03-05T16:52:58.948Z,10.00
2024-03-05T16:55:27.289Z,9.80
2024-03-05T16:58:00.577Z,9.70
2024-03-05T17:00:32.006Z,9.60
2024-03-05T17:03:08.731Z,9.50
2024-03-05T17:05:38.164Z,9.40
2024-03-05T17:08:16.425Z,9.30
2024-03-05T17:10:45.647Z,9.20
2024-03-05T17:13:19.670Z,9.20
2024-03-05T17:15:52.931Z,9.10
2024-03-05T17:18:23.098Z,9.10
2024-03-05T17:20:51.819Z,9.00
2024-03-05T17:23:25.727Z,8.90
2024-03-05T17:25:55.900Z,8.80
2024-03-05T17:28:23.323Z,8.70
2024-03-05T17:30:50.230Z,8.60
2024-03-05T17:33:17.302Z,8.50
2024-03-05T17:35:44.535Z,8.40
2024-03-05T17:38:14.031Z,8.30
2024-03-05T17:40:41.360Z,8.20
2024-03-05T17:43:08.383Z,8.10
2024-03-05T17:45:35.269Z,8.00
2024-03-05T17:48:08.520Z,7.90
2024-03-05T17:50:35.853Z,7.80
2024-03-05T17:53:06.283Z,7.80
2024-03-05T17:55:35.263Z,7.80
2024-03-05T17:58:04.836Z,7.70
2024-03-05T18:00:42.277Z,7.60
2024-03-05T18:03:12.544Z,7.50
2024-03-05T18:05:39.946Z,7.50
2024-03-05T18:08:07.282Z,7.40
2024-03-05T18:10:36.317Z,7.40
2024-03-05T18:13:05.994Z,7.30
2024-03-05T18:15:33.146Z,7.20
2024-03-05T18:18:00.214Z,7.20
2024-03-05T18:20:29.970Z,7.10
2024-03-05T18:23:00.470Z,7.10
2024-03-05T18:25:35.327Z,7.00
2024-03-05T18:28:03.678Z,7.00
2024-03-05T18:30:34.109Z,7.00
2024-03-05T18:33:01.863Z,6.90
2024-03-05T18:35:29.229Z,6.90
2024-03-05T18:37:56.397Z,6.80
2024-03-05T18:40:23.544Z,6.80
2024-03-05T18:42:51.553Z,6.70
2024-03-05T18:45:21.007Z,6.70
2024-03-05T18:47:59.156Z,6.60
2024-03-05T18:50:32.609Z,6.40
2024-03-05T18:53:01.104Z,6.40
2024-03-05T18:55:31.021Z,6.30
2024-03-05T18:57:57.916Z,6.20
2024-03-05T19:00:24.956Z,6.20
2024-03-05T19:02:52.206Z,6.20
2024-03-05T19:05:20.110Z,6.10
2024-03-05T19:07:48.931Z,6.20
2024-03-05T19:10:18.440Z,6.20
2024-03-05T19:12:45.649Z,6.20
2024-03-05T19:15:18.514Z,6.30
2024-03-05T19:17:49.007Z,6.30
2024-03-05T19:20:16.336Z,6.40
2024-03-05T19:22:43.337Z,6.30
2024-03-05T19:25:12.767Z,6.40
2024-03-05T19:27:42.333Z,6.40
2024-03-05T19:30:17.190Z,6.40
2024-03-05T19:32:44.862Z,6.50
2024-03-05T19:35:15.121Z,6.50
2024-03-05T19:37:43.179Z,6.40
2024-03-05T19:40:16.987Z,6.40
2024-03-05T19:42:54.985Z,6.40
2024-03-05T19:45:22.735Z,6.40
2024-03-05T19:47:49.904Z,6.40
2024-03-05T19:50:18.655Z,6.40
2024-03-05T19:52:46.905Z,6.40
2024-03-05T19:55:16.119Z,6.40
2024-03-05T19:57:44.111Z,6.40
2024-03-05T20:00:30.381Z,6.40
2024-03-05T20:02:58.236Z,6.40
2024-03-05T20:05:26.693Z,6.40
2024-03-05T20:07:54.246Z,6.40
2024-03-05T20:10:24.998Z,6.40
2024-03-05T20:12:51.937Z,6.50
2024-03-05T20:15:19.109Z,6.40
2024-03-05T20:17:46.191Z,6.40
2024-03-05T20:20:19.730Z,6.30
2024-03-05T20:22:47.936Z,6.30
2024-03-05T20:25:19.083Z,6.30
2024-03-05T20:27:50.998Z,6.30
2024-03-05T20:30:18.124Z,6.30
2024-03-05T20:32:45.916Z,6.30
2024-03-05T20:35:18.051Z,6.30
2024-03-05T20:37:49.885Z,6.30
2024-03-05T20:40:18.386Z,6.40
2024-03-05T20:42:47.670Z,6.30
2024-03-05T20:45:15.641Z,6.30
2024-03-05T20:47:42.900Z,6.30
2024-03-05T20:50:11.632Z,6.30
2024-03-05T20:52:38.873Z,6.30
2024-03-05T20:55:06.816Z,6.20
2024-03-05T20:57:34.558Z,6.20
2024-03-05T21:00:07.999Z,6.30
2024-03-05T21:02:38.020Z,6.30
2024-03-05T21:05:08.460Z,6.40
2024-03-05T21:07:37.275Z,6.40
2024-03-05T21:10:09.316Z,6.40
2024-03-05T21:12:40.702Z,6.30
2024-03-05T21:15:12.383Z,6.30
2024-03-05T21:17:40.676Z,6.30
2024-03-05T21:20:09.089Z,6.30
2024-03-05T21:22:36.882Z,6.20
2024-03-05T21:25:06.746Z,6.20
2024-03-05T21:27:35.914Z,6.20
2024-03-05T21:30:07.798Z,6.20
2024-03-05T21:32:35.235Z,6.10
2024-03-05T21:35:02.456Z,6.10
2024-03-05T21:37:29.350Z,6.10
2024-03-05T21:39:56.333Z,6.20
2024-03-05T21:42:23.108Z,6.20
2024-03-05T21:44:49.993Z,6.20
2024-03-05T21:47:16.895Z,6.20
2024-03-05T21:49:43.778Z,6.20
2024-03-05T21:52:10.761Z,6.30
2024-03-05T21:54:38.089Z,6.30
2024-03-05T21:57:04.943Z,6.30
2024-03-05T21:59:31.818Z,6.30
2024-03-05T22:01:59.014Z,6.30
2024-03-05T22:04:25.966Z,6.30
2024-03-05T22:06:55.807Z,6.30
2024-03-05T22:09:22.891Z,6.30
2024-03-05T22:11:50.079Z,6.30
2024-03-05T22:14:16.950Z,6.30
2024-03-05T22:16:44.166Z,6.40
2024-03-05T22:19:11.041Z,6.40
2024-03-05T22:21:39.030Z,6.40
2024-03-05T22:24:09.728Z,6.40
2024-03-05T22:26:38.440Z,6.40
2024-03-05T22:29:05.544Z,6.40
2024-03-05T22:31:32.568Z,6.30
2024-03-05T22:33:59.469Z,6.30
2024-03-05T22:36:26.402Z,6.30
2024-03-05T22:38:53.241Z,6.30
2024-03-05T22:41:20.391Z,6.20
2024-03-05T22:43:47.570Z,6.20
2024-03-05T22:46:14.778Z,6.20
2024-03-05T22:48:41.814Z,6.20
2024-03-05T22:51:15.404Z,6.20
2024-03-05T22:53:42.415Z,6.20
2024-03-05T22:56:09.563Z,6.10
2024-03-05T22:58:38.083Z,6.20
2024-03-05T23:01:07.953Z,6.20
2024-03-05T23:03:35.438Z,6.10
2024-03-05T23:06:08.486Z,6.10
2024-03-05T23:08:42.202Z,6.10
2024-03-05T23:11:12.138Z,6.20
2024-03-05T23:13:38.999Z,6.20
2024-03-05T23:16:06.747Z,6.20
2024-03-05T23:18:33.755Z,6.10
2024-03-05T23:21:01.199Z,6.20
2024-03-05T23:23:28.545Z,6.20
2024-03-05T23:25:55.459Z,6.10
2024-03-05T23:28:22.508Z,6.10
2024-03-05T23:30:49.931Z,6.00
2024-03-05T23:33:17.066Z,6.00
2024-03-05T23:35:44.352Z,6.00
2024-03-05T23:38:11.258Z,6.00
2024-03-05T23:40:38.283Z,6.00
2024-03-05T23:43:05.292Z,6.00
2024-03-05T23:45:32.158Z,6.00
2024-03-05T23:47:59.070Z,6.00
2024-03-05T23:50:25.874Z,5.90
2024-03-05T23:52:52.827Z,6.00
2024-03-05T23:55:19.977Z,6.00
2024-03-05T23:57:46.891Z,6.00
